Terminal Aerodrome Forecast
Issued by NWS Billings, MT

Home | Current Version | Previous Version | Graphics & Text | Print | Product List | Glossary Off
Versions: 1 2 3 4 5 6 7 8 9 10 11 12 13 14 15 16 17 18 19 20 21 22 23 24

268
FTUS45 KBYZ 051138
TAFMLS
TAF
KMLS 051138Z 0512/0612 31014KT P6SM VCSH BKN020 OVC040
     FM051800 32016G26KT P6SM -SN BKN015 OVC025
     FM052200 32016G26KT P6SM VCSH SCT040 BKN080
     FM060200 32016KT P6SM BKN080=

USA.gov is the U.S. government's official web portal to all federal, state and local government web resources and services.